Briefing drone pour Oullins

Rechercher une autre localisation

Conditions de vol :


Nous sommes le : Mercredi 24 février 2021
Il est 21:10 UTC (22:10 LT)

Lever de soleil : 06:00 UTC (07:00 LT)
Coucher de soleil : 17:46 UTC (18:46 LT)

Météo

L'essentiel des conditions de vol

VIGILANCE MÉTÉO FRANCE - Rhône (69)
Pas de vigilances particulieres
METAR de LFLL
LFLL 242100Z 14011KT CAVOK 13/05 Q1031 NOSIG

Date d'émission: 24/02/2021
Heure d'émission: 21:00 UTC
Vent: 140° pour 11 KT (20 km/h)
Visibilité horizontale: > 10 km
Plafond : Plafond et visibilité OK (CAVOK)
Température: 13 °C
Point de rosée: 5 °C
Humidité: 58%
Pression (QNH): 1031 hPa
Conditions: Pas de changement dans les 2 heures (NOSIG)
TAF de LFLL
LFLL 241700Z 2418/2524 18008KT CAVOK

Conditions prévues :

Heure d'émission : Bulletin éffectué le 24 à 18:00 UTC
Prévision : Valide du 24 a 18:00 UTC au 25 a 23:59 UTC
Vent : 180° pour 8 KT (15 km/h)
Visibilité : > 10 km
WEBCAM POUR OULLINS

Réglementation

Voler en sécurité

CARTES AERONAUTIQUE 1/500.000
CARTES VAC (LFLL)
SUP AIP




Chargement des AIP...
NOTAM (OULLINS + Terrain à proximité / FIR )




Chargement des NOTAMS...
CONTACT PREFECTURE 69


Avertissement : Les données mises à disposition sont indicatives. Oxygène Drone ne pourra être tenu responsable de dégâts causés aux biens et aux personnes.